sensor_id;sensor_type;location;lat;lon;timestamp;P1;durP1;ratioP1;P2;durP2;ratioP2
45764;SDS011;31474;45.332;10.230;2023-04-30T00:01:38;21.80;;;15.73;;
45764;SDS011;31474;45.332;10.230;2023-04-30T00:04:03;21.77;;;16.13;;
45764;SDS011;31474;45.332;10.230;2023-04-30T00:06:29;22.35;;;15.98;;
45764;SDS011;31474;45.332;10.230;2023-04-30T00:08:55;22.48;;;15.90;;
45764;SDS011;31474;45.332;10.230;2023-04-30T00:11:21;18.45;;;15.52;;
45764;SDS011;31474;45.332;10.230;2023-04-30T00:13:47;19.88;;;15.57;;
45764;SDS011;31474;45.332;10.230;2023-04-30T00:16:13;20.00;;;17.13;;
45764;SDS011;31474;45.332;10.230;2023-04-30T00:18:38;21.65;;;16.02;;
45764;SDS011;31474;45.332;10.230;2023-04-30T00:21:04;24.42;;;16.77;;
45764;SDS011;31474;45.332;10.230;2023-04-30T00:23:30;21.88;;;16.40;;
45764;SDS011;31474;45.332;10.230;2023-04-30T00:25:55;24.63;;;16.27;;
45764;SDS011;31474;45.332;10.230;2023-04-30T00:28:21;19.33;;;16.65;;
45764;SDS011;31474;45.332;10.230;2023-04-30T00:30:46;20.90;;;16.30;;
45764;SDS011;31474;45.332;10.230;2023-04-30T00:33:12;26.10;;;15.82;;
45764;SDS011;31474;45.332;10.230;2023-04-30T00:35:38;25.17;;;15.63;;
45764;SDS011;31474;45.332;10.230;2023-04-30T00:38:03;20.00;;;16.08;;
45764;SDS011;31474;45.332;10.230;2023-04-30T00:40:29;18.85;;;15.13;;
45764;SDS011;31474;45.332;10.230;2023-04-30T00:42:54;19.55;;;15.95;;
45764;SDS011;31474;45.332;10.230;2023-04-30T00:45:21;22.33;;;17.75;;
45764;SDS011;31474;45.332;10.230;2023-04-30T00:47:47;24.13;;;17.20;;
45764;SDS011;31474;45.332;10.230;2023-04-30T00:50:13;20.75;;;16.08;;
45764;SDS011;31474;45.332;10.230;2023-04-30T00:52:40;21.42;;;15.90;;
45764;SDS011;31474;45.332;10.230;2023-04-30T00:55:06;22.80;;;16.67;;
45764;SDS011;31474;45.332;10.230;2023-04-30T00:57:33;22.40;;;16.95;;
45764;SDS011;31474;45.332;10.230;2023-04-30T01:00:00;23.05;;;16.05;;
45764;SDS011;31474;45.332;10.230;2023-04-30T01:02:26;24.63;;;16.08;;
45764;SDS011;31474;45.332;10.230;2023-04-30T01:04:52;25.13;;;17.55;;
45764;SDS011;31474;45.332;10.230;2023-04-30T01:07:19;21.75;;;16.73;;
45764;SDS011;31474;45.332;10.230;2023-04-30T01:09:44;20.98;;;16.13;;
45764;SDS011;31474;45.332;10.230;2023-04-30T01:17:40;25.45;;;17.83;;
45764;SDS011;31474;45.332;10.230;2023-04-30T01:20:11;22.00;;;17.52;;
45764;SDS011;31474;45.332;10.230;2023-04-30T01:28:07;29.02;;;20.25;;
45764;SDS011;31474;45.332;10.230;2023-04-30T01:30:34;25.50;;;20.30;;
45764;SDS011;31474;45.332;10.230;2023-04-30T01:33:01;25.75;;;19.77;;
45764;SDS011;31474;45.332;10.230;2023-04-30T01:40:45;26.08;;;19.27;;
45764;SDS011;31474;45.332;10.230;2023-04-30T01:43:26;29.30;;;21.08;;
45764;SDS011;31474;45.332;10.230;2023-04-30T01:46:17;27.98;;;19.15;;
45764;SDS011;31474;45.332;10.230;2023-04-30T01:51:43;26.63;;;20.63;;
45764;SDS011;31474;45.332;10.230;2023-04-30T01:56:52;27.38;;;20.95;;
45764;SDS011;31474;45.332;10.230;2023-04-30T01:59:26;23.98;;;19.20;;
45764;SDS011;31474;45.332;10.230;2023-04-30T02:01:52;29.77;;;20.27;;
45764;SDS011;31474;45.332;10.230;2023-04-30T02:04:20;23.48;;;18.85;;
45764;SDS011;31474;45.332;10.230;2023-04-30T02:06:45;27.50;;;19.85;;
45764;SDS011;31474;45.332;10.230;2023-04-30T02:09:11;24.77;;;19.27;;
45764;SDS011;31474;45.332;10.230;2023-04-30T02:11:36;25.67;;;19.77;;
45764;SDS011;31474;45.332;10.230;2023-04-30T02:14:02;26.70;;;18.98;;
45764;SDS011;31474;45.332;10.230;2023-04-30T02:16:28;27.83;;;20.27;;
45764;SDS011;31474;45.332;10.230;2023-04-30T02:18:53;23.95;;;19.40;;
45764;SDS011;31474;45.332;10.230;2023-04-30T02:21:19;25.63;;;20.38;;
45764;SDS011;31474;45.332;10.230;2023-04-30T02:23:45;26.63;;;18.95;;
45764;SDS011;31474;45.332;10.230;2023-04-30T02:26:10;24.58;;;19.45;;
45764;SDS011;31474;45.332;10.230;2023-04-30T02:28:36;29.73;;;18.77;;
45764;SDS011;31474;45.332;10.230;2023-04-30T02:31:02;27.58;;;19.63;;
45764;SDS011;31474;45.332;10.230;2023-04-30T02:33:27;26.20;;;19.02;;
45764;SDS011;31474;45.332;10.230;2023-04-30T02:35:53;25.77;;;19.35;;
45764;SDS011;31474;45.332;10.230;2023-04-30T02:38:19;24.23;;;18.63;;
45764;SDS011;31474;45.332;10.230;2023-04-30T02:40:45;25.20;;;20.20;;
45764;SDS011;31474;45.332;10.230;2023-04-30T02:43:10;28.75;;;20.92;;
45764;SDS011;31474;45.332;10.230;2023-04-30T02:45:36;24.15;;;19.48;;
45764;SDS011;31474;45.332;10.230;2023-04-30T02:48:02;25.10;;;20.15;;
45764;SDS011;31474;45.332;10.230;2023-04-30T02:50:27;25.58;;;20.00;;
45764;SDS011;31474;45.332;10.230;2023-04-30T02:52:53;30.90;;;20.58;;
45764;SDS011;31474;45.332;10.230;2023-04-30T02:55:20;26.85;;;19.70;;
45764;SDS011;31474;45.332;10.230;2023-04-30T02:57:45;27.85;;;19.88;;
45764;SDS011;31474;45.332;10.230;2023-04-30T03:00:11;26.67;;;18.98;;
45764;SDS011;31474;45.332;10.230;2023-04-30T03:02:37;23.98;;;17.88;;
45764;SDS011;31474;45.332;10.230;2023-04-30T03:05:03;25.05;;;19.38;;
45764;SDS011;31474;45.332;10.230;2023-04-30T03:07:29;27.95;;;18.00;;
45764;SDS011;31474;45.332;10.230;2023-04-30T03:09:55;25.73;;;17.83;;
45764;SDS011;31474;45.332;10.230;2023-04-30T03:12:20;24.48;;;18.27;;
45764;SDS011;31474;45.332;10.230;2023-04-30T03:14:46;26.77;;;18.70;;
45764;SDS011;31474;45.332;10.230;2023-04-30T03:17:11;26.33;;;18.70;;
45764;SDS011;31474;45.332;10.230;2023-04-30T03:19:37;26.25;;;18.75;;
45764;SDS011;31474;45.332;10.230;2023-04-30T03:22:03;22.90;;;18.17;;
45764;SDS011;31474;45.332;10.230;2023-04-30T03:24:28;24.58;;;18.20;;
45764;SDS011;31474;45.332;10.230;2023-04-30T03:26:54;25.05;;;17.02;;
45764;SDS011;31474;45.332;10.230;2023-04-30T03:29:20;23.75;;;17.98;;
45764;SDS011;31474;45.332;10.230;2023-04-30T03:31:46;21.77;;;17.60;;
45764;SDS011;31474;45.332;10.230;2023-04-30T03:34:11;21.48;;;17.75;;
45764;SDS011;31474;45.332;10.230;2023-04-30T03:36:37;22.38;;;17.60;;
45764;SDS011;31474;45.332;10.230;2023-04-30T03:39:03;25.50;;;18.35;;
45764;SDS011;31474;45.332;10.230;2023-04-30T03:41:28;28.65;;;18.58;;
45764;SDS011;31474;45.332;10.230;2023-04-30T03:43:54;27.83;;;17.50;;
45764;SDS011;31474;45.332;10.230;2023-04-30T03:46:20;22.63;;;17.77;;
45764;SDS011;31474;45.332;10.230;2023-04-30T03:48:45;26.80;;;17.67;;
45764;SDS011;31474;45.332;10.230;2023-04-30T03:51:11;23.20;;;17.33;;
45764;SDS011;31474;45.332;10.230;2023-04-30T03:53:37;20.38;;;17.10;;
45764;SDS011;31474;45.332;10.230;2023-04-30T03:56:02;25.42;;;17.80;;
45764;SDS011;31474;45.332;10.230;2023-04-30T03:58:29;25.92;;;17.60;;
45764;SDS011;31474;45.332;10.230;2023-04-30T04:00:55;24.23;;;18.70;;
45764;SDS011;31474;45.332;10.230;2023-04-30T04:03:20;29.25;;;19.65;;
45764;SDS011;31474;45.332;10.230;2023-04-30T04:05:47;27.88;;;20.48;;
45764;SDS011;31474;45.332;10.230;2023-04-30T04:08:12;25.85;;;18.75;;
45764;SDS011;31474;45.332;10.230;2023-04-30T04:10:38;30.85;;;20.13;;
45764;SDS011;31474;45.332;10.230;2023-04-30T04:13:05;24.90;;;19.98;;
45764;SDS011;31474;45.332;10.230;2023-04-30T04:15:31;29.13;;;18.92;;
45764;SDS011;31474;45.332;10.230;2023-04-30T04:17:57;24.08;;;18.02;;
45764;SDS011;31474;45.332;10.230;2023-04-30T04:20:23;26.30;;;18.83;;
45764;SDS011;31474;45.332;10.230;2023-04-30T04:22:48;26.42;;;18.35;;
45764;SDS011;31474;45.332;10.230;2023-04-30T04:25:14;29.30;;;20.67;;
45764;SDS011;31474;45.332;10.230;2023-04-30T04:27:42;24.48;;;18.27;;
45764;SDS011;31474;45.332;10.230;2023-04-30T04:30:08;27.90;;;19.70;;
45764;SDS011;31474;45.332;10.230;2023-04-30T04:32:33;25.08;;;19.27;;
45764;SDS011;31474;45.332;10.230;2023-04-30T04:35:11;23.88;;;18.15;;
45764;SDS011;31474;45.332;10.230;2023-04-30T04:37:41;26.55;;;19.35;;
45764;SDS011;31474;45.332;10.230;2023-04-30T04:40:07;29.33;;;20.60;;
45764;SDS011;31474;45.332;10.230;2023-04-30T04:42:33;29.63;;;19.67;;
45764;SDS011;31474;45.332;10.230;2023-04-30T04:44:58;29.15;;;19.42;;
45764;SDS011;31474;45.332;10.230;2023-04-30T04:47:24;25.02;;;20.48;;
45764;SDS011;31474;45.332;10.230;2023-04-30T04:49:50;26.48;;;18.60;;
45764;SDS011;31474;45.332;10.230;2023-04-30T04:52:16;25.08;;;18.40;;
45764;SDS011;31474;45.332;10.230;2023-04-30T04:54:42;28.17;;;18.55;;
45764;SDS011;31474;45.332;10.230;2023-04-30T04:57:08;26.98;;;18.25;;
45764;SDS011;31474;45.332;10.230;2023-04-30T04:59:33;31.83;;;19.88;;
45764;SDS011;31474;45.332;10.230;2023-04-30T05:01:59;25.10;;;20.73;;
45764;SDS011;31474;45.332;10.230;2023-04-30T05:04:24;27.10;;;19.13;;
45764;SDS011;31474;45.332;10.230;2023-04-30T05:06:51;26.05;;;19.17;;
45764;SDS011;31474;45.332;10.230;2023-04-30T05:09:16;25.50;;;19.25;;
45764;SDS011;31474;45.332;10.230;2023-04-30T05:11:42;27.02;;;19.02;;
45764;SDS011;31474;45.332;10.230;2023-04-30T05:14:08;27.42;;;20.65;;
45764;SDS011;31474;45.332;10.230;2023-04-30T05:16:34;29.25;;;22.13;;
45764;SDS011;31474;45.332;10.230;2023-04-30T05:18:59;29.50;;;22.00;;
45764;SDS011;31474;45.332;10.230;2023-04-30T05:21:25;28.45;;;20.50;;
45764;SDS011;31474;45.332;10.230;2023-04-30T05:23:53;32.28;;;21.58;;
45764;SDS011;31474;45.332;10.230;2023-04-30T05:26:19;32.08;;;22.90;;
45764;SDS011;31474;45.332;10.230;2023-04-30T05:28:45;29.15;;;21.02;;
45764;SDS011;31474;45.332;10.230;2023-04-30T05:31:10;27.15;;;20.50;;
45764;SDS011;31474;45.332;10.230;2023-04-30T05:33:36;30.42;;;22.88;;
45764;SDS011;31474;45.332;10.230;2023-04-30T05:36:02;27.70;;;20.63;;
45764;SDS011;31474;45.332;10.230;2023-04-30T05:38:27;31.20;;;21.08;;
45764;SDS011;31474;45.332;10.230;2023-04-30T05:40:53;27.98;;;20.85;;
45764;SDS011;31474;45.332;10.230;2023-04-30T05:43:19;26.50;;;20.02;;
45764;SDS011;31474;45.332;10.230;2023-04-30T05:45:44;32.72;;;22.08;;
45764;SDS011;31474;45.332;10.230;2023-04-30T05:48:10;26.17;;;20.90;;
45764;SDS011;31474;45.332;10.230;2023-04-30T05:50:35;28.17;;;19.50;;
45764;SDS011;31474;45.332;10.230;2023-04-30T05:53:01;30.00;;;20.52;;
45764;SDS011;31474;45.332;10.230;2023-04-30T05:55:27;31.63;;;20.20;;
45764;SDS011;31474;45.332;10.230;2023-04-30T05:57:52;27.00;;;20.17;;
45764;SDS011;31474;45.332;10.230;2023-04-30T06:00:18;29.73;;;21.13;;
45764;SDS011;31474;45.332;10.230;2023-04-30T06:02:43;28.20;;;20.60;;
45764;SDS011;31474;45.332;10.230;2023-04-30T06:05:09;28.00;;;21.02;;
45764;SDS011;31474;45.332;10.230;2023-04-30T06:07:35;29.15;;;21.52;;
45764;SDS011;31474;45.332;10.230;2023-04-30T06:10:01;29.80;;;21.05;;
45764;SDS011;31474;45.332;10.230;2023-04-30T06:12:27;28.17;;;21.58;;
45764;SDS011;31474;45.332;10.230;2023-04-30T06:14:53;31.70;;;22.52;;
45764;SDS011;31474;45.332;10.230;2023-04-30T06:17:19;31.05;;;21.65;;
45764;SDS011;31474;45.332;10.230;2023-04-30T06:19:44;30.88;;;22.35;;
45764;SDS011;31474;45.332;10.230;2023-04-30T06:22:10;28.60;;;21.98;;
45764;SDS011;31474;45.332;10.230;2023-04-30T06:24:36;29.85;;;20.95;;
45764;SDS011;31474;45.332;10.230;2023-04-30T06:27:02;26.85;;;19.52;;
45764;SDS011;31474;45.332;10.230;2023-04-30T06:29:27;26.75;;;20.10;;
45764;SDS011;31474;45.332;10.230;2023-04-30T06:31:53;27.25;;;18.35;;
45764;SDS011;31474;45.332;10.230;2023-04-30T06:34:19;36.35;;;21.00;;
45764;SDS011;31474;45.332;10.230;2023-04-30T06:36:45;28.45;;;19.60;;
45764;SDS011;31474;45.332;10.230;2023-04-30T06:39:13;26.90;;;18.95;;
45764;SDS011;31474;45.332;10.230;2023-04-30T06:41:39;24.83;;;18.42;;
45764;SDS011;31474;45.332;10.230;2023-04-30T06:44:05;23.38;;;16.60;;
45764;SDS011;31474;45.332;10.230;2023-04-30T06:46:31;29.75;;;17.55;;
45764;SDS011;31474;45.332;10.230;2023-04-30T06:48:58;21.50;;;16.98;;
45764;SDS011;31474;45.332;10.230;2023-04-30T06:51:24;22.38;;;16.83;;
45764;SDS011;31474;45.332;10.230;2023-04-30T06:53:50;21.67;;;16.48;;
45764;SDS011;31474;45.332;10.230;2023-04-30T06:56:17;20.70;;;15.73;;
45764;SDS011;31474;45.332;10.230;2023-04-30T06:58:42;25.27;;;15.85;;
45764;SDS011;31474;45.332;10.230;2023-04-30T07:01:09;19.45;;;15.57;;
45764;SDS011;31474;45.332;10.230;2023-04-30T07:03:34;22.25;;;15.60;;
45764;SDS011;31474;45.332;10.230;2023-04-30T07:06:00;18.70;;;14.30;;
45764;SDS011;31474;45.332;10.230;2023-04-30T07:08:26;19.02;;;14.70;;
45764;SDS011;31474;45.332;10.230;2023-04-30T07:10:52;23.08;;;15.45;;
45764;SDS011;31474;45.332;10.230;2023-04-30T07:13:17;19.60;;;14.43;;
45764;SDS011;31474;45.332;10.230;2023-04-30T07:15:43;23.38;;;15.27;;
45764;SDS011;31474;45.332;10.230;2023-04-30T07:18:09;25.58;;;16.65;;
45764;SDS011;31474;45.332;10.230;2023-04-30T07:20:35;22.80;;;15.45;;
45764;SDS011;31474;45.332;10.230;2023-04-30T07:23:00;21.13;;;15.43;;
45764;SDS011;31474;45.332;10.230;2023-04-30T07:25:26;17.70;;;14.25;;
45764;SDS011;31474;45.332;10.230;2023-04-30T07:27:52;17.92;;;14.25;;
45764;SDS011;31474;45.332;10.230;2023-04-30T07:30:18;20.60;;;13.43;;
45764;SDS011;31474;45.332;10.230;2023-04-30T07:32:44;22.85;;;15.60;;
45764;SDS011;31474;45.332;10.230;2023-04-30T07:35:11;20.17;;;15.13;;
45764;SDS011;31474;45.332;10.230;2023-04-30T07:37:38;19.15;;;14.02;;
45764;SDS011;31474;45.332;10.230;2023-04-30T07:40:03;22.13;;;14.65;;
45764;SDS011;31474;45.332;10.230;2023-04-30T07:42:31;19.90;;;14.05;;
45764;SDS011;31474;45.332;10.230;2023-04-30T07:44:57;16.00;;;13.82;;
45764;SDS011;31474;45.332;10.230;2023-04-30T07:47:23;16.67;;;12.93;;
45764;SDS011;31474;45.332;10.230;2023-04-30T07:49:49;18.80;;;13.88;;
45764;SDS011;31474;45.332;10.230;2023-04-30T07:52:15;17.30;;;13.65;;
45764;SDS011;31474;45.332;10.230;2023-04-30T07:54:41;22.00;;;13.77;;
45764;SDS011;31474;45.332;10.230;2023-04-30T07:57:06;19.20;;;13.80;;
45764;SDS011;31474;45.332;10.230;2023-04-30T07:59:32;18.35;;;13.25;;
45764;SDS011;31474;45.332;10.230;2023-04-30T08:01:58;16.08;;;12.32;;
45764;SDS011;31474;45.332;10.230;2023-04-30T08:04:24;16.02;;;12.85;;
45764;SDS011;31474;45.332;10.230;2023-04-30T08:06:49;17.83;;;13.07;;
45764;SDS011;31474;45.332;10.230;2023-04-30T08:09:15;18.30;;;12.65;;
45764;SDS011;31474;45.332;10.230;2023-04-30T08:11:41;14.13;;;12.18;;
45764;SDS011;31474;45.332;10.230;2023-04-30T08:14:06;17.20;;;12.27;;
45764;SDS011;31474;45.332;10.230;2023-04-30T08:16:32;16.45;;;12.20;;
45764;SDS011;31474;45.332;10.230;2023-04-30T08:18:58;15.88;;;10.82;;
45764;SDS011;31474;45.332;10.230;2023-04-30T08:21:24;15.48;;;11.45;;
45764;SDS011;31474;45.332;10.230;2023-04-30T08:23:52;16.00;;;11.48;;
45764;SDS011;31474;45.332;10.230;2023-04-30T08:26:18;15.20;;;11.63;;
45764;SDS011;31474;45.332;10.230;2023-04-30T08:28:43;15.02;;;10.88;;
45764;SDS011;31474;45.332;10.230;2023-04-30T08:31:09;14.98;;;11.57;;
45764;SDS011;31474;45.332;10.230;2023-04-30T08:33:35;13.13;;;11.18;;
45764;SDS011;31474;45.332;10.230;2023-04-30T08:36:00;15.85;;;10.60;;
45764;SDS011;31474;45.332;10.230;2023-04-30T08:38:27;17.10;;;10.98;;
45764;SDS011;31474;45.332;10.230;2023-04-30T08:40:55;12.38;;;9.90;;
45764;SDS011;31474;45.332;10.230;2023-04-30T08:43:32;15.45;;;10.88;;
45764;SDS011;31474;45.332;10.230;2023-04-30T08:45:59;15.35;;;11.30;;
45764;SDS011;31474;45.332;10.230;2023-04-30T08:48:26;16.55;;;11.57;;
45764;SDS011;31474;45.332;10.230;2023-04-30T08:50:53;17.70;;;11.35;;
45764;SDS011;31474;45.332;10.230;2023-04-30T08:53:19;15.95;;;10.70;;
45764;SDS011;31474;45.332;10.230;2023-04-30T08:55:46;13.82;;;10.77;;
45764;SDS011;31474;45.332;10.230;2023-04-30T08:58:12;13.68;;;10.82;;
45764;SDS011;31474;45.332;10.230;2023-04-30T09:00:38;13.85;;;10.98;;
45764;SDS011;31474;45.332;10.230;2023-04-30T09:03:04;16.25;;;11.43;;
45764;SDS011;31474;45.332;10.230;2023-04-30T09:05:32;15.43;;;11.30;;
45764;SDS011;31474;45.332;10.230;2023-04-30T09:07:57;15.10;;;10.50;;
45764;SDS011;31474;45.332;10.230;2023-04-30T09:10:23;13.95;;;10.57;;
45764;SDS011;31474;45.332;10.230;2023-04-30T09:15:24;15.15;;;10.93;;
45764;SDS011;31474;45.332;10.230;2023-04-30T09:17:50;11.50;;;9.77;;
45764;SDS011;31474;45.332;10.230;2023-04-30T09:20:29;10.65;;;9.30;;
45764;SDS011;31474;45.332;10.230;2023-04-30T09:23:04;13.65;;;9.45;;
45764;SDS011;31474;45.332;10.230;2023-04-30T09:25:40;13.82;;;10.55;;
45764;SDS011;31474;45.332;10.230;2023-04-30T09:28:10;13.25;;;9.35;;
45764;SDS011;31474;45.332;10.230;2023-04-30T09:30:37;12.32;;;9.10;;
45764;SDS011;31474;45.332;10.230;2023-04-30T09:33:03;16.42;;;10.75;;
45764;SDS011;31474;45.332;10.230;2023-04-30T09:35:33;16.73;;;11.13;;
45764;SDS011;31474;45.332;10.230;2023-04-30T09:38:00;14.48;;;10.40;;
45764;SDS011;31474;45.332;10.230;2023-04-30T09:43:02;14.35;;;9.18;;
45764;SDS011;31474;45.332;10.230;2023-04-30T09:45:38;12.07;;;8.63;;
45764;SDS011;31474;45.332;10.230;2023-04-30T09:48:17;10.82;;;8.05;;
45764;SDS011;31474;45.332;10.230;2023-04-30T09:50:45;12.02;;;9.07;;
45764;SDS011;31474;45.332;10.230;2023-04-30T09:53:11;10.60;;;8.75;;
45764;SDS011;31474;45.332;10.230;2023-04-30T09:55:40;10.13;;;7.28;;
45764;SDS011;31474;45.332;10.230;2023-04-30T09:58:08;11.48;;;7.63;;
45764;SDS011;31474;45.332;10.230;2023-04-30T10:00:35;11.00;;;6.25;;
45764;SDS011;31474;45.332;10.230;2023-04-30T10:03:04;9.68;;;7.00;;
45764;SDS011;31474;45.332;10.230;2023-04-30T10:05:35;8.73;;;6.65;;
45764;SDS011;31474;45.332;10.230;2023-04-30T10:08:29;10.07;;;6.30;;
45764;SDS011;31474;45.332;10.230;2023-04-30T10:10:58;8.25;;;6.85;;
45764;SDS011;31474;45.332;10.230;2023-04-30T10:16:03;7.30;;;5.80;;
45764;SDS011;31474;45.332;10.230;2023-04-30T10:18:36;11.53;;;7.27;;
45764;SDS011;31474;45.332;10.230;2023-04-30T10:21:06;9.85;;;8.85;;
45764;SDS011;31474;45.332;10.230;2023-04-30T10:23:38;10.98;;;8.15;;
45764;SDS011;31474;45.332;10.230;2023-04-30T10:26:06;9.93;;;8.45;;
45764;SDS011;31474;45.332;10.230;2023-04-30T10:28:35;10.65;;;7.85;;
45764;SDS011;31474;45.332;10.230;2023-04-30T10:31:01;13.52;;;7.88;;
45764;SDS011;31474;45.332;10.230;2023-04-30T10:33:28;9.52;;;6.65;;
45764;SDS011;31474;45.332;10.230;2023-04-30T10:36:09;7.70;;;5.63;;
45764;SDS011;31474;45.332;10.230;2023-04-30T10:38:38;6.32;;;5.25;;
45764;SDS011;31474;45.332;10.230;2023-04-30T10:41:05;7.00;;;4.80;;
45764;SDS011;31474;45.332;10.230;2023-04-30T10:43:34;8.27;;;5.45;;
45764;SDS011;31474;45.332;10.230;2023-04-30T10:46:01;7.00;;;5.28;;
45764;SDS011;31474;45.332;10.230;2023-04-30T10:48:28;6.40;;;4.85;;
45764;SDS011;31474;45.332;10.230;2023-04-30T10:50:55;7.60;;;4.72;;
45764;SDS011;31474;45.332;10.230;2023-04-30T10:53:22;7.68;;;4.70;;
45764;SDS011;31474;45.332;10.230;2023-04-30T10:55:53;7.88;;;6.13;;
45764;SDS011;31474;45.332;10.230;2023-04-30T11:01:00;8.35;;;5.22;;
45764;SDS011;31474;45.332;10.230;2023-04-30T11:03:35;8.07;;;5.82;;
45764;SDS011;31474;45.332;10.230;2023-04-30T11:06:14;8.20;;;5.93;;
45764;SDS011;31474;45.332;10.230;2023-04-30T11:08:44;6.07;;;4.88;;
45764;SDS011;31474;45.332;10.230;2023-04-30T11:11:11;6.93;;;4.43;;
45764;SDS011;31474;45.332;10.230;2023-04-30T11:13:45;6.78;;;5.82;;
45764;SDS011;31474;45.332;10.230;2023-04-30T11:16:12;10.18;;;5.65;;
45764;SDS011;31474;45.332;10.230;2023-04-30T11:18:40;7.05;;;5.00;;
45764;SDS011;31474;45.332;10.230;2023-04-30T11:21:08;5.40;;;4.82;;
45764;SDS011;31474;45.332;10.230;2023-04-30T11:23:34;8.30;;;5.10;;
45764;SDS011;31474;45.332;10.230;2023-04-30T11:26:00;10.10;;;5.18;;
45764;SDS011;31474;45.332;10.230;2023-04-30T11:28:27;8.57;;;5.28;;
45764;SDS011;31474;45.332;10.230;2023-04-30T11:30:58;7.93;;;4.68;;
45764;SDS011;31474;45.332;10.230;2023-04-30T11:33:25;5.38;;;4.75;;
45764;SDS011;31474;45.332;10.230;2023-04-30T11:35:53;6.97;;;4.70;;
45764;SDS011;31474;45.332;10.230;2023-04-30T11:38:27;6.00;;;4.95;;
45764;SDS011;31474;45.332;10.230;2023-04-30T11:40:57;8.63;;;6.00;;
45764;SDS011;31474;45.332;10.230;2023-04-30T11:43:25;7.50;;;4.10;;
45764;SDS011;31474;45.332;10.230;2023-04-30T11:46:02;3.97;;;3.45;;
45764;SDS011;31474;45.332;10.230;2023-04-30T11:48:32;7.80;;;3.30;;
45764;SDS011;31474;45.332;10.230;2023-04-30T11:51:15;8.13;;;4.28;;
45764;SDS011;31474;45.332;10.230;2023-04-30T11:53:46;4.63;;;3.70;;
45764;SDS011;31474;45.332;10.230;2023-04-30T11:56:13;8.55;;;3.03;;
45764;SDS011;31474;45.332;10.230;2023-04-30T11:58:41;3.50;;;2.47;;
45764;SDS011;31474;45.332;10.230;2023-04-30T12:01:10;2.92;;;1.92;;
45764;SDS011;31474;45.332;10.230;2023-04-30T12:03:39;4.80;;;2.35;;
45764;SDS011;31474;45.332;10.230;2023-04-30T12:06:08;2.90;;;1.65;;
45764;SDS011;31474;45.332;10.230;2023-04-30T12:08:45;2.33;;;1.63;;
45764;SDS011;31474;45.332;10.230;2023-04-30T12:11:30;2.95;;;1.70;;
45764;SDS011;31474;45.332;10.230;2023-04-30T12:13:59;2.20;;;1.23;;
45764;SDS011;31474;45.332;10.230;2023-04-30T12:19:14;1.40;;;1.30;;
45764;SDS011;31474;45.332;10.230;2023-04-30T12:21:41;1.52;;;1.25;;
45764;SDS011;31474;45.332;10.230;2023-04-30T12:24:10;2.58;;;1.50;;
45764;SDS011;31474;45.332;10.230;2023-04-30T12:26:37;3.15;;;1.30;;
45764;SDS011;31474;45.332;10.230;2023-04-30T12:29:22;1.13;;;1.00;;
45764;SDS011;31474;45.332;10.230;2023-04-30T12:31:49;1.30;;;1.20;;
45764;SDS011;31474;45.332;10.230;2023-04-30T12:34:15;1.92;;;1.30;;
45764;SDS011;31474;45.332;10.230;2023-04-30T12:36:42;4.00;;;1.60;;
45764;SDS011;31474;45.332;10.230;2023-04-30T12:39:09;2.35;;;1.52;;
45764;SDS011;31474;45.332;10.230;2023-04-30T12:41:40;2.70;;;1.88;;
45764;SDS011;31474;45.332;10.230;2023-04-30T12:44:18;4.13;;;1.55;;
45764;SDS011;31474;45.332;10.230;2023-04-30T12:46:49;3.72;;;0.90;;
45764;SDS011;31474;45.332;10.230;2023-04-30T12:49:27;1.20;;;1.02;;
45764;SDS011;31474;45.332;10.230;2023-04-30T12:52:03;1.30;;;1.02;;
45764;SDS011;31474;45.332;10.230;2023-04-30T12:54:32;1.95;;;1.10;;
45764;SDS011;31474;45.332;10.230;2023-04-30T12:59:25;2.45;;;1.10;;
45764;SDS011;31474;45.332;10.230;2023-04-30T13:01:52;1.50;;;1.10;;
45764;SDS011;31474;45.332;10.230;2023-04-30T13:04:19;1.30;;;0.90;;
45764;SDS011;31474;45.332;10.230;2023-04-30T13:06:45;5.75;;;2.65;;
45764;SDS011;31474;45.332;10.230;2023-04-30T13:09:11;1.95;;;1.40;;
45764;SDS011;31474;45.332;10.230;2023-04-30T13:11:36;2.40;;;1.33;;
45764;SDS011;31474;45.332;10.230;2023-04-30T13:14:02;4.20;;;2.00;;
45764;SDS011;31474;45.332;10.230;2023-04-30T13:16:29;2.33;;;1.50;;
45764;SDS011;31474;45.332;10.230;2023-04-30T13:18:55;2.08;;;1.50;;
45764;SDS011;31474;45.332;10.230;2023-04-30T13:21:21;2.80;;;2.05;;
45764;SDS011;31474;45.332;10.230;2023-04-30T13:23:48;1.42;;;1.17;;
45764;SDS011;31474;45.332;10.230;2023-04-30T13:26:14;2.20;;;1.30;;
45764;SDS011;31474;45.332;10.230;2023-04-30T13:28:40;2.75;;;1.45;;
45764;SDS011;31474;45.332;10.230;2023-04-30T13:31:06;3.85;;;1.55;;
45764;SDS011;31474;45.332;10.230;2023-04-30T13:33:31;1.40;;;1.15;;
45764;SDS011;31474;45.332;10.230;2023-04-30T13:35:57;1.80;;;1.40;;
45764;SDS011;31474;45.332;10.230;2023-04-30T13:38:22;3.75;;;1.27;;
45764;SDS011;31474;45.332;10.230;2023-04-30T13:40:48;2.38;;;1.23;;
45764;SDS011;31474;45.332;10.230;2023-04-30T13:43:14;4.57;;;1.15;;
45764;SDS011;31474;45.332;10.230;2023-04-30T13:45:40;1.60;;;1.38;;
45764;SDS011;31474;45.332;10.230;2023-04-30T13:48:05;2.50;;;1.35;;
45764;SDS011;31474;45.332;10.230;2023-04-30T13:50:31;2.15;;;1.60;;
45764;SDS011;31474;45.332;10.230;2023-04-30T13:52:56;1.70;;;1.33;;
45764;SDS011;31474;45.332;10.230;2023-04-30T13:55:23;2.47;;;1.10;;
45764;SDS011;31474;45.332;10.230;2023-04-30T13:57:49;2.53;;;1.50;;
45764;SDS011;31474;45.332;10.230;2023-04-30T14:00:15;3.97;;;1.50;;
45764;SDS011;31474;45.332;10.230;2023-04-30T14:02:41;1.98;;;1.23;;
45764;SDS011;31474;45.332;10.230;2023-04-30T14:05:06;2.55;;;1.30;;
45764;SDS011;31474;45.332;10.230;2023-04-30T14:07:32;3.47;;;1.50;;
45764;SDS011;31474;45.332;10.230;2023-04-30T14:09:59;2.03;;;1.25;;
45764;SDS011;31474;45.332;10.230;2023-04-30T14:12:24;2.13;;;1.40;;
45764;SDS011;31474;45.332;10.230;2023-04-30T14:14:51;1.98;;;1.45;;
45764;SDS011;31474;45.332;10.230;2023-04-30T14:17:16;3.42;;;1.42;;
45764;SDS011;31474;45.332;10.230;2023-04-30T14:19:42;1.75;;;1.35;;
45764;SDS011;31474;45.332;10.230;2023-04-30T14:22:08;1.58;;;1.10;;
45764;SDS011;31474;45.332;10.230;2023-04-30T14:24:33;2.42;;;1.38;;
45764;SDS011;31474;45.332;10.230;2023-04-30T14:27:00;1.98;;;1.35;;
45764;SDS011;31474;45.332;10.230;2023-04-30T14:29:26;1.77;;;1.40;;
45764;SDS011;31474;45.332;10.230;2023-04-30T14:31:52;3.13;;;1.40;;
45764;SDS011;31474;45.332;10.230;2023-04-30T14:34:18;2.00;;;1.50;;
45764;SDS011;31474;45.332;10.230;2023-04-30T14:36:43;2.75;;;1.50;;
45764;SDS011;31474;45.332;10.230;2023-04-30T14:39:09;1.45;;;1.20;;
45764;SDS011;31474;45.332;10.230;2023-04-30T14:41:35;2.15;;;1.63;;
45764;SDS011;31474;45.332;10.230;2023-04-30T14:44:01;2.13;;;1.85;;
45764;SDS011;31474;45.332;10.230;2023-04-30T14:46:28;3.15;;;1.65;;
45764;SDS011;31474;45.332;10.230;2023-04-30T14:48:54;2.20;;;1.50;;
45764;SDS011;31474;45.332;10.230;2023-04-30T14:51:20;3.97;;;1.83;;
45764;SDS011;31474;45.332;10.230;2023-04-30T14:53:46;2.08;;;1.63;;
45764;SDS011;31474;45.332;10.230;2023-04-30T14:56:11;3.15;;;2.10;;